createdAt,value
2022-12-29T00:00:05.045Z,3.87
2022-12-29T00:00:06.440Z,3.82
2022-12-29T00:00:23.516Z,3.86
2022-12-29T00:00:26.522Z,3.83
2022-12-29T00:00:36.468Z,3.86
2022-12-29T00:00:46.503Z,3.88
2022-12-29T00:00:56.507Z,3.89
2022-12-29T00:01:18.023Z,3.91
2022-12-29T00:01:18.317Z,3.77
2022-12-29T00:01:28.321Z,3.87
2022-12-29T00:01:38.323Z,3.89
2022-12-29T00:01:48.316Z,3.89
2022-12-29T00:01:58.326Z,3.89
2022-12-29T00:02:08.319Z,3.90
2022-12-29T00:02:18.376Z,3.90
2022-12-29T00:02:28.362Z,3.89
2022-12-29T00:02:38.460Z,3.91
2022-12-29T00:02:48.417Z,3.91
2022-12-29T00:02:58.471Z,3.91
2022-12-29T00:03:08.384Z,3.93
2022-12-29T00:03:18.401Z,3.92
2022-12-29T00:03:28.471Z,3.92
2022-12-29T00:03:38.547Z,3.92
2022-12-29T00:03:48.414Z,3.92
2022-12-29T00:03:58.394Z,3.92
2022-12-29T00:04:12.978Z,3.90
2022-12-29T00:04:19.387Z,3.89
2022-12-29T00:04:28.333Z,3.88
2022-12-29T00:04:38.332Z,3.89
2022-12-29T00:04:48.329Z,3.89
2022-12-29T00:04:58.346Z,3.90
2022-12-29T00:05:08.333Z,3.91
2022-12-29T00:05:18.330Z,3.90
2022-12-29T00:05:28.341Z,3.89
2022-12-29T00:05:38.339Z,3.91
2022-12-29T00:05:48.346Z,3.91
2022-12-29T00:05:58.355Z,3.90
2022-12-29T00:06:08.356Z,3.92
2022-12-29T00:06:18.341Z,3.91
2022-12-29T00:06:28.336Z,3.92
2022-12-29T00:06:38.339Z,3.94
2022-12-29T00:06:48.340Z,3.93
2022-12-29T00:06:58.345Z,3.95
2022-12-29T00:07:08.361Z,3.95
2022-12-29T00:07:18.388Z,3.95
2022-12-29T00:07:28.338Z,3.98
2022-12-29T00:07:38.352Z,3.98
2022-12-29T00:07:48.404Z,3.99
2022-12-29T00:07:58.342Z,4.01
2022-12-29T00:08:08.347Z,4.01
2022-12-29T00:08:18.351Z,4.03
2022-12-29T00:08:28.344Z,4.03
2022-12-29T00:08:38.351Z,4.03
2022-12-29T00:08:48.354Z,4.04
2022-12-29T00:08:58.354Z,4.05
2022-12-29T00:09:08.349Z,4.06
2022-12-29T00:09:18.349Z,4.06
2022-12-29T00:09:28.351Z,4.06
2022-12-29T00:09:38.351Z,4.05
2022-12-29T00:09:48.347Z,4.05
2022-12-29T00:09:58.358Z,4.06
2022-12-29T00:10:08.375Z,4.07
2022-12-29T00:10:18.359Z,4.06
2022-12-29T00:10:28.354Z,4.09
2022-12-29T00:10:38.387Z,4.09
2022-12-29T00:10:48.364Z,4.08
2022-12-29T00:10:58.378Z,4.08
2022-12-29T00:11:08.356Z,4.10
2022-12-29T00:11:18.362Z,4.09
2022-12-29T00:11:28.356Z,4.08
2022-12-29T00:11:38.362Z,4.09
2022-12-29T00:11:48.358Z,4.08
2022-12-29T00:11:58.371Z,4.10
2022-12-29T00:12:08.364Z,4.09
2022-12-29T00:12:18.371Z,4.09
2022-12-29T00:12:28.361Z,4.10
2022-12-29T00:12:38.364Z,4.09
2022-12-29T00:12:48.361Z,4.11
2022-12-29T00:12:58.360Z,4.11
2022-12-29T00:13:08.363Z,4.13
2022-12-29T00:13:18.366Z,4.11
2022-12-29T00:13:28.369Z,4.12
2022-12-29T00:13:38.370Z,4.11
2022-12-29T00:13:48.368Z,4.12
2022-12-29T00:13:58.382Z,4.12
2022-12-29T00:14:08.369Z,4.14
2022-12-29T00:14:22.769Z,4.15
2022-12-29T00:14:29.372Z,4.14
2022-12-29T00:14:38.375Z,4.14
2022-12-29T00:14:48.370Z,4.14
2022-12-29T00:14:58.372Z,4.15
2022-12-29T00:15:08.374Z,4.17
2022-12-29T00:15:18.384Z,4.16
2022-12-29T00:15:28.381Z,4.19
2022-12-29T00:15:38.502Z,4.18
2022-12-29T00:15:48.396Z,4.18
2022-12-29T00:15:58.393Z,4.19
2022-12-29T00:16:08.427Z,4.20
2022-12-29T00:16:18.460Z,4.20
2022-12-29T00:16:28.504Z,4.23
2022-12-29T00:16:38.416Z,4.20
2022-12-29T00:16:48.377Z,4.21
2022-12-29T00:16:58.386Z,4.20
2022-12-29T00:17:08.408Z,4.21
2022-12-29T00:17:18.388Z,4.22
2022-12-29T00:17:29.022Z,4.20
2022-12-29T00:17:38.390Z,4.23
2022-12-29T00:17:48.382Z,4.24
2022-12-29T00:17:58.397Z,4.25
2022-12-29T00:18:08.398Z,4.25
2022-12-29T00:18:18.385Z,4.27
2022-12-29T00:18:28.384Z,4.28
2022-12-29T00:18:38.391Z,4.30
2022-12-29T00:18:48.392Z,4.29
2022-12-29T00:18:58.384Z,4.29
2022-12-29T00:19:16.042Z,4.32
2022-12-29T00:19:19.042Z,4.24
2022-12-29T00:19:28.388Z,4.31
2022-12-29T00:19:38.388Z,4.32
2022-12-29T00:19:48.446Z,4.32
2022-12-29T00:19:58.392Z,4.32
2022-12-29T00:20:08.401Z,4.34
2022-12-29T00:20:18.400Z,4.34
2022-12-29T00:20:28.396Z,4.33
2022-12-29T00:20:38.403Z,4.32
2022-12-29T00:20:48.405Z,4.35
2022-12-29T00:20:58.407Z,4.35
2022-12-29T00:21:08.393Z,4.36
2022-12-29T00:21:18.394Z,4.37
2022-12-29T00:21:28.406Z,4.36
2022-12-29T00:21:38.405Z,4.34
2022-12-29T00:21:48.399Z,4.33
2022-12-29T00:21:58.401Z,4.31
2022-12-29T00:22:08.401Z,4.32
2022-12-29T00:22:18.401Z,4.34
2022-12-29T00:22:28.415Z,4.34
2022-12-29T00:22:38.402Z,4.34
2022-12-29T00:22:48.412Z,4.33
2022-12-29T00:22:58.404Z,4.35
2022-12-29T00:23:08.409Z,4.32
2022-12-29T00:23:18.406Z,4.31
2022-12-29T00:23:28.429Z,4.33
2022-12-29T00:23:38.409Z,4.30
2022-12-29T00:23:48.409Z,4.32
2022-12-29T00:23:58.420Z,4.31
2022-12-29T00:24:08.409Z,4.32
2022-12-29T00:24:19.044Z,4.32
2022-12-29T00:24:28.423Z,4.31
2022-12-29T00:24:38.414Z,4.32
2022-12-29T00:24:48.414Z,4.34
2022-12-29T00:24:58.427Z,4.34
2022-12-29T00:25:08.417Z,4.36
2022-12-29T00:25:18.426Z,4.36
2022-12-29T00:25:28.439Z,4.37
2022-12-29T00:25:38.471Z,4.35
2022-12-29T00:25:48.425Z,4.35
2022-12-29T00:25:58.429Z,4.34
2022-12-29T00:26:08.423Z,4.34
2022-12-29T00:26:18.434Z,4.33
2022-12-29T00:26:28.428Z,4.35
2022-12-29T00:26:38.472Z,4.33
2022-12-29T00:26:48.454Z,4.32
2022-12-29T00:26:58.427Z,4.34
2022-12-29T00:27:08.433Z,4.34
2022-12-29T00:27:18.446Z,4.32
2022-12-29T00:27:28.436Z,4.33
2022-12-29T00:27:38.450Z,4.31
2022-12-29T00:27:48.442Z,4.31
2022-12-29T00:28:03.207Z,4.33
2022-12-29T00:28:09.453Z,4.29
2022-12-29T00:28:18.441Z,4.30
2022-12-29T00:28:28.447Z,4.30
2022-12-29T00:28:38.435Z,4.29
2022-12-29T00:28:48.472Z,4.30
2022-12-29T00:28:58.446Z,4.30
2022-12-29T00:29:08.448Z,4.31
2022-12-29T00:29:19.107Z,4.31
2022-12-29T00:29:28.444Z,4.31
2022-12-29T00:29:38.440Z,4.35
2022-12-29T00:29:48.458Z,4.32
2022-12-29T00:29:58.469Z,4.35
2022-12-29T00:30:08.450Z,4.34
2022-12-29T00:30:18.470Z,4.35
2022-12-29T00:30:28.453Z,4.36
2022-12-29T00:30:38.440Z,4.34
2022-12-29T00:30:48.576Z,4.34
2022-12-29T00:30:58.485Z,4.34
2022-12-29T00:31:08.479Z,4.34
2022-12-29T00:31:18.549Z,4.33
2022-12-29T00:31:28.519Z,4.32
2022-12-29T00:31:38.475Z,4.34
2022-12-29T00:31:48.538Z,4.35
2022-12-29T00:31:58.474Z,4.36
2022-12-29T00:32:08.443Z,4.36
2022-12-29T00:32:18.459Z,4.36
2022-12-29T00:32:28.451Z,4.36
2022-12-29T00:32:38.453Z,4.36
2022-12-29T00:32:48.483Z,4.36
2022-12-29T00:32:58.459Z,4.36
2022-12-29T00:33:08.477Z,4.37
2022-12-29T00:33:18.461Z,4.37
2022-12-29T00:33:28.451Z,4.37
2022-12-29T00:33:38.459Z,4.40
2022-12-29T00:33:48.471Z,4.41
2022-12-29T00:33:58.460Z,4.39
2022-12-29T00:34:08.495Z,4.41
2022-12-29T00:34:19.049Z,4.39
2022-12-29T00:34:28.481Z,4.38
2022-12-29T00:34:38.460Z,4.37
2022-12-29T00:34:48.489Z,4.39
2022-12-29T00:34:58.461Z,4.39
2022-12-29T00:35:08.459Z,4.38
2022-12-29T00:35:18.460Z,4.39
2022-12-29T00:35:28.465Z,4.38
2022-12-29T00:35:38.485Z,4.39
2022-12-29T00:35:48.476Z,4.38
2022-12-29T00:35:58.465Z,4.39
2022-12-29T00:36:08.466Z,4.39
2022-12-29T00:36:18.473Z,4.40
2022-12-29T00:36:28.489Z,4.40
2022-12-29T00:36:38.469Z,4.39
2022-12-29T00:36:48.496Z,4.38
2022-12-29T00:36:58.468Z,4.39
2022-12-29T00:37:08.470Z,4.39
2022-12-29T00:37:18.471Z,4.37
2022-12-29T00:37:28.471Z,4.39
2022-12-29T00:37:38.473Z,4.39
2022-12-29T00:37:48.497Z,4.38
2022-12-29T00:37:58.481Z,4.40
2022-12-29T00:38:08.474Z,4.39
2022-12-29T00:38:18.488Z,4.40
2022-12-29T00:38:28.473Z,4.42
2022-12-29T00:38:38.472Z,4.39
2022-12-29T00:38:48.507Z,4.39
2022-12-29T00:38:58.478Z,4.41
2022-12-29T00:39:08.478Z,4.39
2022-12-29T00:39:18.497Z,4.41
2022-12-29T00:39:28.489Z,4.41
2022-12-29T00:39:38.527Z,4.41
2022-12-29T00:39:48.508Z,4.41
2022-12-29T00:39:58.487Z,4.42
2022-12-29T00:40:08.478Z,4.41
2022-12-29T00:40:18.483Z,4.43
2022-12-29T00:40:28.512Z,4.43
2022-12-29T00:40:38.503Z,4.41
2022-12-29T00:40:48.525Z,4.45
2022-12-29T00:40:58.483Z,4.43
2022-12-29T00:41:08.485Z,4.45
2022-12-29T00:41:18.511Z,4.44
2022-12-29T00:41:28.516Z,4.45
2022-12-29T00:41:38.487Z,4.42
2022-12-29T00:41:48.495Z,4.44
2022-12-29T00:41:58.487Z,4.43
2022-12-29T00:42:08.492Z,4.45
2022-12-29T00:42:18.493Z,4.44
2022-12-29T00:42:28.494Z,4.42
2022-12-29T00:42:38.496Z,4.43
2022-12-29T00:42:48.512Z,4.42
2022-12-29T00:42:58.504Z,4.44
2022-12-29T00:43:08.512Z,4.44
2022-12-29T00:43:18.500Z,4.44
2022-12-29T00:43:28.490Z,4.43
2022-12-29T00:43:38.494Z,4.43
2022-12-29T00:43:48.506Z,4.43
2022-12-29T00:43:58.507Z,4.47
2022-12-29T00:44:08.508Z,4.47
2022-12-29T00:44:18.656Z,4.47
2022-12-29T00:44:28.499Z,4.46
2022-12-29T00:44:38.516Z,4.47
2022-12-29T00:44:48.539Z,4.48
2022-12-29T00:44:58.503Z,4.47
2022-12-29T00:45:08.528Z,4.49
2022-12-29T00:45:18.526Z,4.49
2022-12-29T00:45:28.505Z,4.52
2022-12-29T00:45:38.538Z,4.51
2022-12-29T00:45:48.565Z,4.51
2022-12-29T00:45:58.504Z,4.52
2022-12-29T00:46:11.728Z,4.53
2022-12-29T00:46:20.354Z,4.53
2022-12-29T00:46:28.545Z,4.52
2022-12-29T00:46:38.556Z,4.50
2022-12-29T00:46:48.585Z,4.52
2022-12-29T00:46:58.544Z,4.52
2022-12-29T00:47:08.549Z,4.54
2022-12-29T00:47:18.580Z,4.54
2022-12-29T00:47:29.048Z,4.56
2022-12-29T00:47:38.515Z,4.56
2022-12-29T00:47:48.528Z,4.56
2022-12-29T00:47:58.516Z,4.55
2022-12-29T00:48:08.522Z,4.54
2022-12-29T00:48:18.520Z,4.55
2022-12-29T00:48:28.529Z,4.56
2022-12-29T00:48:38.520Z,4.57
2022-12-29T00:48:48.520Z,4.57
2022-12-29T00:48:58.522Z,4.59
2022-12-29T00:49:08.537Z,4.60
2022-12-29T00:49:18.524Z,4.59
2022-12-29T00:49:28.521Z,4.62
2022-12-29T00:49:38.553Z,4.63
2022-12-29T00:49:48.521Z,4.61
2022-12-29T00:49:58.527Z,4.65
2022-12-29T00:50:08.531Z,4.64
2022-12-29T00:50:18.528Z,4.63
2022-12-29T00:50:28.534Z,4.62
2022-12-29T00:50:38.554Z,4.63
2022-12-29T00:50:48.536Z,4.64
2022-12-29T00:50:58.529Z,4.64
2022-12-29T00:51:08.543Z,4.64
2022-12-29T00:51:18.537Z,4.63
2022-12-29T00:51:28.529Z,4.61
2022-12-29T00:51:38.527Z,4.62
2022-12-29T00:51:48.558Z,4.62
2022-12-29T00:51:58.535Z,4.62
2022-12-29T00:52:08.543Z,4.60
2022-12-29T00:52:18.540Z,4.61
2022-12-29T00:52:28.534Z,4.60
2022-12-29T00:52:38.544Z,4.61
2022-12-29T00:52:48.534Z,4.62
2022-12-29T00:52:58.541Z,4.64
2022-12-29T00:53:08.571Z,4.64
2022-12-29T00:53:18.544Z,4.60
2022-12-29T00:53:28.569Z,4.61
2022-12-29T00:53:38.538Z,4.61
2022-12-29T00:53:48.540Z,4.61
2022-12-29T00:53:58.545Z,4.62
2022-12-29T00:54:08.547Z,4.61
2022-12-29T00:54:18.676Z,4.59
2022-12-29T00:54:28.554Z,4.59
2022-12-29T00:54:38.552Z,4.59
2022-12-29T00:54:48.545Z,4.59
2022-12-29T00:54:58.545Z,4.59
2022-12-29T00:55:08.563Z,4.60
2022-12-29T00:55:18.548Z,4.59
2022-12-29T00:55:28.552Z,4.60
2022-12-29T00:55:38.593Z,4.61
2022-12-29T00:55:48.553Z,4.61
2022-12-29T00:55:58.562Z,4.61
2022-12-29T00:56:08.554Z,4.61
2022-12-29T00:56:18.563Z,4.61
2022-12-29T00:56:28.570Z,4.61
2022-12-29T00:56:38.566Z,4.61
2022-12-29T00:56:48.592Z,4.62
2022-12-29T00:56:58.562Z,4.60
2022-12-29T00:57:08.561Z,4.62
2022-12-29T00:57:18.557Z,4.62
2022-12-29T00:57:28.569Z,4.64
2022-12-29T00:57:38.555Z,4.65
2022-12-29T00:57:48.573Z,4.64
2022-12-29T00:57:58.552Z,4.66
2022-12-29T00:58:08.555Z,4.65
2022-12-29T00:58:18.566Z,4.67
2022-12-29T00:58:28.572Z,4.67
2022-12-29T00:58:38.559Z,4.64
2022-12-29T00:58:48.555Z,4.66
2022-12-29T00:58:58.567Z,4.66
2022-12-29T00:59:08.581Z,4.67
2022-12-29T00:59:19.542Z,4.64
2022-12-29T00:59:28.576Z,4.67
2022-12-29T00:59:38.597Z,4.67
2022-12-29T00:59:48.569Z,4.68
2022-12-29T00:59:58.563Z,4.71
2022-12-29T01:00:08.581Z,4.69
2022-12-29T01:00:18.565Z,4.71
2022-12-29T01:00:28.645Z,4.69
2022-12-29T01:00:38.597Z,4.67
2022-12-29T01:00:48.601Z,4.69
2022-12-29T01:00:58.589Z,4.68
2022-12-29T01:01:08.609Z,4.68
2022-12-29T01:01:18.713Z,4.70
2022-12-29T01:01:28.784Z,4.71
2022-12-29T01:01:38.710Z,4.71
2022-12-29T01:01:48.731Z,4.75
2022-12-29T01:01:58.714Z,4.74
2022-12-29T01:02:08.741Z,4.74
2022-12-29T01:02:18.649Z,4.73
2022-12-29T01:02:28.698Z,4.71
2022-12-29T01:02:38.663Z,4.72
2022-12-29T01:02:48.720Z,4.71
2022-12-29T01:02:58.692Z,4.71
2022-12-29T01:03:08.670Z,4.70
2022-12-29T01:03:18.689Z,4.72
2022-12-29T01:03:28.589Z,4.69
2022-12-29T01:03:38.616Z,4.71
2022-12-29T01:03:48.594Z,4.69
2022-12-29T01:04:02.161Z,4.70
2022-12-29T01:04:09.584Z,4.67
2022-12-29T01:04:19.560Z,4.66
2022-12-29T01:04:28.588Z,4.67
2022-12-29T01:04:38.578Z,4.67
2022-12-29T01:04:48.583Z,4.68
2022-12-29T01:04:58.578Z,4.68
2022-12-29T01:05:08.582Z,4.67
2022-12-29T01:05:18.594Z,4.67
2022-12-29T01:05:28.586Z,4.67
2022-12-29T01:05:38.599Z,4.69
2022-12-29T01:05:48.593Z,4.67
2022-12-29T01:05:58.618Z,4.68
2022-12-29T01:06:08.591Z,4.69
2022-12-29T01:06:18.589Z,4.66
2022-12-29T01:06:28.582Z,4.68
2022-12-29T01:06:38.609Z,4.68
2022-12-29T01:06:48.590Z,4.67
2022-12-29T01:06:58.593Z,4.65
2022-12-29T01:07:08.611Z,4.64
2022-12-29T01:07:18.599Z,4.66
2022-12-29T01:07:28.602Z,4.66
2022-12-29T01:07:38.602Z,4.68
2022-12-29T01:07:48.594Z,4.68
2022-12-29T01:07:58.609Z,4.69
2022-12-29T01:08:08.589Z,4.68
2022-12-29T01:08:18.597Z,4.71
2022-12-29T01:08:28.611Z,4.70
2022-12-29T01:08:38.600Z,4.70
2022-12-29T01:08:48.591Z,4.72
2022-12-29T01:08:58.596Z,4.70
2022-12-29T01:09:08.622Z,4.70
2022-12-29T01:09:19.565Z,4.72
2022-12-29T01:09:28.599Z,4.71
2022-12-29T01:09:38.605Z,4.71
2022-12-29T01:09:48.595Z,4.70
2022-12-29T01:09:58.613Z,4.72
2022-12-29T01:10:08.601Z,4.71
2022-12-29T01:10:18.629Z,4.71
2022-12-29T01:10:28.605Z,4.73
2022-12-29T01:10:38.618Z,4.71
2022-12-29T01:10:48.597Z,4.72
2022-12-29T01:10:58.618Z,4.71
2022-12-29T01:11:08.601Z,4.73
2022-12-29T01:11:18.600Z,4.73
2022-12-29T01:11:28.602Z,4.72
2022-12-29T01:11:38.605Z,4.73
2022-12-29T01:11:48.612Z,4.73
2022-12-29T01:11:58.607Z,4.69
2022-12-29T01:12:08.606Z,4.68
2022-12-29T01:12:18.603Z,4.67
2022-12-29T01:12:28.610Z,4.67
2022-12-29T01:12:38.611Z,4.68
2022-12-29T01:12:48.620Z,4.68
2022-12-29T01:12:58.611Z,4.69
2022-12-29T01:13:08.607Z,4.69
2022-12-29T01:13:18.617Z,4.69
2022-12-29T01:13:28.607Z,4.68
2022-12-29T01:13:38.617Z,4.69
2022-12-29T01:13:48.624Z,4.69
2022-12-29T01:13:58.616Z,4.68
2022-12-29T01:14:08.626Z,4.69
2022-12-29T01:14:19.557Z,4.68
2022-12-29T01:14:28.655Z,4.69
2022-12-29T01:14:38.621Z,4.68
2022-12-29T01:14:48.621Z,4.70
2022-12-29T01:14:58.624Z,4.70
2022-12-29T01:15:08.650Z,4.71
2022-12-29T01:15:18.628Z,4.71
2022-12-29T01:15:28.614Z,4.69
2022-12-29T01:15:38.628Z,4.70
2022-12-29T01:15:48.657Z,4.71
2022-12-29T01:15:58.665Z,4.69
2022-12-29T01:16:08.677Z,4.69
2022-12-29T01:16:18.684Z,4.70
2022-12-29T01:16:28.690Z,4.71
2022-12-29T01:16:38.731Z,4.70
2022-12-29T01:16:48.622Z,4.70
2022-12-29T01:16:59.529Z,4.71
2022-12-29T01:17:08.654Z,4.72
2022-12-29T01:17:18.663Z,4.70
2022-12-29T01:17:28.623Z,4.71
2022-12-29T01:17:38.625Z,4.72
2022-12-29T01:17:48.627Z,4.73
2022-12-29T01:17:58.621Z,4.72
2022-12-29T01:18:08.632Z,4.73
2022-12-29T01:18:18.624Z,4.75
2022-12-29T01:18:28.630Z,4.76
2022-12-29T01:18:38.659Z,4.76
2022-12-29T01:18:48.646Z,4.77
2022-12-29T01:18:58.624Z,4.77
2022-12-29T01:19:08.647Z,4.77
2022-12-29T01:19:19.552Z,4.79
2022-12-29T01:19:28.649Z,4.79
2022-12-29T01:19:38.651Z,4.78
2022-12-29T01:19:48.639Z,4.80
2022-12-29T01:19:58.638Z,4.80
2022-12-29T01:20:08.637Z,4.82
2022-12-29T01:20:18.636Z,4.80
2022-12-29T01:20:28.642Z,4.81
2022-12-29T01:20:38.668Z,4.84
2022-12-29T01:20:48.637Z,4.81
2022-12-29T01:20:58.636Z,4.84
2022-12-29T01:21:08.655Z,4.82
2022-12-29T01:21:18.639Z,4.84
2022-12-29T01:21:28.651Z,4.83
2022-12-29T01:21:38.660Z,4.88
2022-12-29T01:21:48.644Z,4.85
2022-12-29T01:21:58.668Z,4.86
2022-12-29T01:22:08.654Z,4.84
2022-12-29T01:22:18.645Z,4.84
2022-12-29T01:22:28.642Z,4.82
2022-12-29T01:22:38.674Z,4.83
2022-12-29T01:22:48.655Z,4.83
2022-12-29T01:22:58.639Z,4.82
2022-12-29T01:23:08.648Z,4.80
2022-12-29T01:23:18.642Z,4.81
2022-12-29T01:23:28.644Z,4.80
2022-12-29T01:23:38.661Z,4.79
2022-12-29T01:23:48.648Z,4.80
2022-12-29T01:23:58.659Z,4.81
2022-12-29T01:24:08.679Z,4.83
2022-12-29T01:24:19.553Z,4.81
2022-12-29T01:24:28.649Z,4.78
2022-12-29T01:24:38.661Z,4.80
2022-12-29T01:24:48.648Z,4.81
2022-12-29T01:24:58.652Z,4.80
2022-12-29T01:25:08.646Z,4.80
2022-12-29T01:25:18.692Z,4.79
2022-12-29T01:25:28.647Z,4.77
2022-12-29T01:25:38.671Z,4.77
2022-12-29T01:25:48.673Z,4.77
2022-12-29T01:25:58.651Z,4.79
2022-12-29T01:26:08.662Z,4.79
2022-12-29T01:26:18.656Z,4.77
2022-12-29T01:26:28.659Z,4.77
2022-12-29T01:26:38.672Z,4.77
2022-12-29T01:26:48.653Z,4.77
2022-12-29T01:26:58.660Z,4.78
2022-12-29T01:27:08.682Z,4.78
2022-12-29T01:27:18.655Z,4.76
2022-12-29T01:27:28.678Z,4.80
2022-12-29T01:27:38.661Z,4.77
2022-12-29T01:27:48.690Z,4.78
2022-12-29T01:27:58.656Z,4.78
2022-12-29T01:28:08.661Z,4.79
2022-12-29T01:28:23.947Z,4.78
2022-12-29T01:28:29.664Z,4.77
2022-12-29T01:28:38.663Z,4.76
2022-12-29T01:28:48.669Z,4.77
2022-12-29T01:28:58.670Z,4.78
2022-12-29T01:29:08.669Z,4.79
2022-12-29T01:29:18.709Z,4.79
2022-12-29T01:29:28.697Z,4.79
2022-12-29T01:29:38.669Z,4.77
2022-12-29T01:29:48.668Z,4.79
2022-12-29T01:29:59.595Z,4.78
2022-12-29T01:30:08.670Z,4.77
2022-12-29T01:30:18.667Z,4.77
2022-12-29T01:30:28.684Z,4.79
2022-12-29T01:30:39.059Z,4.77
2022-12-29T01:30:48.679Z,4.78
2022-12-29T01:30:58.674Z,4.76
2022-12-29T01:31:09.613Z,4.79
2022-12-29T01:31:18.719Z,4.77
2022-12-29T01:31:28.733Z,4.78
2022-12-29T01:31:38.727Z,4.76
2022-12-29T01:31:48.802Z,4.77
2022-12-29T01:31:58.723Z,4.75
2022-12-29T01:32:08.691Z,4.77
2022-12-29T01:32:18.692Z,4.77
2022-12-29T01:32:28.727Z,4.77
2022-12-29T01:32:38.679Z,4.77
2022-12-29T01:32:48.688Z,4.77
2022-12-29T01:32:58.699Z,4.79
2022-12-29T01:33:08.687Z,4.79
2022-12-29T01:33:18.720Z,4.77
2022-12-29T01:33:28.696Z,4.77
2022-12-29T01:33:38.690Z,4.76
2022-12-29T01:33:48.689Z,4.80
2022-12-29T01:33:58.696Z,4.78
2022-12-29T01:34:08.692Z,4.79
2022-12-29T01:34:18.724Z,4.77
2022-12-29T01:34:28.715Z,4.77
2022-12-29T01:34:38.704Z,4.77
2022-12-29T01:34:48.694Z,4.75
2022-12-29T01:34:58.716Z,4.78
2022-12-29T01:35:08.712Z,4.78
2022-12-29T01:35:18.695Z,4.78
2022-12-29T01:35:28.700Z,4.80
2022-12-29T01:35:38.707Z,4.79
2022-12-29T01:35:48.706Z,4.79
2022-12-29T01:35:58.701Z,4.82
2022-12-29T01:36:08.702Z,4.82
2022-12-29T01:36:18.725Z,4.82
2022-12-29T01:36:28.695Z,4.83
2022-12-29T01:36:38.701Z,4.84
2022-12-29T01:36:48.694Z,4.82
2022-12-29T01:36:58.717Z,4.84
2022-12-29T01:37:08.709Z,4.84
2022-12-29T01:37:18.734Z,4.82
2022-12-29T01:37:28.707Z,4.84
2022-12-29T01:37:38.711Z,4.82
2022-12-29T01:37:48.701Z,4.82
2022-12-29T01:37:58.705Z,4.83
2022-12-29T01:38:08.710Z,4.84
2022-12-29T01:38:18.708Z,4.83
2022-12-29T01:38:28.752Z,4.83
2022-12-29T01:38:38.718Z,4.82
2022-12-29T01:38:48.715Z,4.82
2022-12-29T01:38:58.707Z,4.84
2022-12-29T01:39:08.722Z,4.86
2022-12-29T01:39:18.706Z,4.84
2022-12-29T01:39:28.709Z,4.82
2022-12-29T01:39:38.705Z,4.83
2022-12-29T01:39:48.723Z,4.82
2022-12-29T01:39:58.709Z,4.82
2022-12-29T01:40:08.745Z,4.83
2022-12-29T01:40:18.710Z,4.81
2022-12-29T01:40:28.714Z,4.80
2022-12-29T01:40:38.718Z,4.82
2022-12-29T01:40:48.707Z,4.80
2022-12-29T01:40:58.712Z,4.81
2022-12-29T01:41:08.723Z,4.80
2022-12-29T01:41:18.745Z,4.82
2022-12-29T01:41:28.711Z,4.83
2022-12-29T01:41:38.713Z,4.83
2022-12-29T01:41:48.724Z,4.85
2022-12-29T01:41:58.718Z,4.85
2022-12-29T01:42:08.712Z,4.83
2022-12-29T01:42:18.745Z,4.85
2022-12-29T01:42:28.742Z,4.83
2022-12-29T01:42:38.712Z,4.83
2022-12-29T01:42:48.712Z,4.83
2022-12-29T01:42:58.740Z,4.83
2022-12-29T01:43:08.731Z,4.82
2022-12-29T01:43:18.719Z,4.82
2022-12-29T01:43:28.720Z,4.84
2022-12-29T01:43:38.716Z,4.83
2022-12-29T01:43:48.720Z,4.84
2022-12-29T01:43:58.776Z,4.85
2022-12-29T01:44:08.717Z,4.83
2022-12-29T01:44:18.719Z,4.85
2022-12-29T01:44:28.729Z,4.82
2022-12-29T01:44:38.730Z,4.82
2022-12-29T01:44:48.728Z,4.83
2022-12-29T01:44:58.737Z,4.82
2022-12-29T01:45:08.728Z,4.83
2022-12-29T01:45:18.768Z,4.83
2022-12-29T01:45:28.772Z,4.82
2022-12-29T01:45:38.745Z,4.83
2022-12-29T01:45:48.757Z,4.83
2022-12-29T01:45:58.817Z,4.83
2022-12-29T01:46:08.962Z,4.83
2022-12-29T01:46:18.755Z,4.83
2022-12-29T01:46:28.751Z,4.82
2022-12-29T01:46:38.748Z,4.83
2022-12-29T01:46:48.737Z,4.83
2022-12-29T01:46:58.764Z,4.82
2022-12-29T01:47:08.743Z,4.83
2022-12-29T01:47:18.744Z,4.81
2022-12-29T01:47:28.749Z,4.83
2022-12-29T01:47:38.771Z,4.81
2022-12-29T01:47:48.741Z,4.82
2022-12-29T01:47:58.783Z,4.82
2022-12-29T01:48:08.770Z,4.81
2022-12-29T01:48:18.744Z,4.82
2022-12-29T01:48:28.752Z,4.84
2022-12-29T01:48:38.749Z,4.84
2022-12-29T01:48:48.747Z,4.84
2022-12-29T01:48:58.743Z,4.84
2022-12-29T01:49:08.757Z,4.87
2022-12-29T01:49:18.776Z,4.87
2022-12-29T01:49:28.762Z,4.89
2022-12-29T01:49:38.743Z,4.86
2022-12-29T01:49:48.743Z,4.88
2022-12-29T01:49:58.767Z,4.87
2022-12-29T01:50:08.759Z,4.86
2022-12-29T01:50:18.760Z,4.88
2022-12-29T01:50:28.761Z,4.87
2022-12-29T01:50:38.749Z,4.85
2022-12-29T01:50:48.757Z,4.85
2022-12-29T01:50:58.759Z,4.86
2022-12-29T01:51:08.756Z,4.84
2022-12-29T01:51:18.770Z,4.84
2022-12-29T01:51:28.784Z,4.84
2022-12-29T01:51:38.757Z,4.82
2022-12-29T01:51:48.774Z,4.82
2022-12-29T01:51:58.753Z,4.82
2022-12-29T01:52:08.760Z,4.82
2022-12-29T01:52:18.771Z,4.83
2022-12-29T01:52:28.774Z,4.83
2022-12-29T01:52:38.769Z,4.81
2022-12-29T01:52:48.792Z,4.81
2022-12-29T01:52:58.793Z,4.81
2022-12-29T01:53:08.793Z,4.80
2022-12-29T01:53:18.775Z,4.81
2022-12-29T01:53:28.799Z,4.80
2022-12-29T01:53:38.780Z,4.80
2022-12-29T01:53:48.794Z,4.80
2022-12-29T01:53:58.779Z,4.79
2022-12-29T01:54:08.767Z,4.78
2022-12-29T01:54:18.771Z,4.78
2022-12-29T01:54:28.779Z,4.76
2022-12-29T01:54:38.795Z,4.78
2022-12-29T01:54:48.778Z,4.77
2022-12-29T01:54:58.767Z,4.77
2022-12-29T01:55:08.806Z,4.79
2022-12-29T01:55:18.770Z,4.77
2022-12-29T01:55:28.771Z,4.78
2022-12-29T01:55:38.784Z,4.76
2022-12-29T01:55:48.795Z,4.78
2022-12-29T01:55:58.774Z,4.79
2022-12-29T01:56:08.782Z,4.81
2022-12-29T01:56:18.782Z,4.79
2022-12-29T01:56:28.777Z,4.81
2022-12-29T01:56:38.772Z,4.82
2022-12-29T01:56:48.777Z,4.82
2022-12-29T01:56:58.776Z,4.84
2022-12-29T01:57:08.781Z,4.85
2022-12-29T01:57:18.799Z,4.85
2022-12-29T01:57:28.783Z,4.85
2022-12-29T01:57:38.791Z,4.83
2022-12-29T01:57:48.783Z,4.84
2022-12-29T01:57:58.781Z,4.85
2022-12-29T01:58:08.799Z,4.85
2022-12-29T01:58:18.806Z,4.83
2022-12-29T01:58:28.778Z,4.83
2022-12-29T01:58:38.777Z,4.84
2022-12-29T01:58:48.780Z,4.81
2022-12-29T01:58:58.789Z,4.81
2022-12-29T01:59:08.786Z,4.82
2022-12-29T01:59:18.788Z,4.83
2022-12-29T01:59:28.790Z,4.85
2022-12-29T01:59:38.784Z,4.84
2022-12-29T01:59:48.783Z,4.84
2022-12-29T01:59:58.788Z,4.86
2022-12-29T02:00:08.786Z,4.86
2022-12-29T02:00:18.799Z,4.83
2022-12-29T02:00:28.844Z,4.85
2022-12-29T02:00:38.839Z,4.85
2022-12-29T02:00:48.849Z,4.87
2022-12-29T02:00:58.894Z,4.86
2022-12-29T02:01:08.886Z,4.88
2022-12-29T02:01:18.846Z,4.87
2022-12-29T02:01:28.937Z,4.88
2022-12-29T02:01:38.921Z,4.87
2022-12-29T02:01:48.885Z,4.86
2022-12-29T02:01:58.866Z,4.85
2022-12-29T02:02:08.924Z,4.87
2022-12-29T02:02:18.888Z,4.86
2022-12-29T02:02:33.099Z,4.85
2022-12-29T02:02:38.976Z,4.83
2022-12-29T02:02:49.624Z,4.85
2022-12-29T02:02:58.884Z,4.86
2022-12-29T02:03:08.856Z,4.88
2022-12-29T02:03:18.915Z,4.89
2022-12-29T02:03:28.821Z,4.88
2022-12-29T02:03:38.853Z,4.88
2022-12-29T02:03:48.815Z,4.88
2022-12-29T02:03:58.799Z,4.86
2022-12-29T02:04:08.818Z,4.87
2022-12-29T02:04:18.811Z,4.87
2022-12-29T02:04:28.810Z,4.87
2022-12-29T02:04:38.857Z,4.87
2022-12-29T02:04:48.800Z,4.86
2022-12-29T02:05:04.151Z,4.87
2022-12-29T02:05:09.827Z,4.85
2022-12-29T02:05:18.817Z,4.87
2022-12-29T02:05:28.813Z,4.87
2022-12-29T02:05:38.819Z,4.88
2022-12-29T02:05:48.830Z,4.89
2022-12-29T02:05:58.806Z,4.90
2022-12-29T02:06:08.815Z,4.90
2022-12-29T02:06:18.922Z,4.90
2022-12-29T02:06:28.807Z,4.89
2022-12-29T02:06:38.850Z,4.90
2022-12-29T02:06:48.808Z,4.90
2022-12-29T02:06:58.817Z,4.89
2022-12-29T02:07:08.833Z,4.89
2022-12-29T02:07:18.821Z,4.91
2022-12-29T02:07:28.808Z,4.91
2022-12-29T02:07:38.827Z,4.90
2022-12-29T02:07:48.831Z,4.91
2022-12-29T02:07:58.834Z,4.91
2022-12-29T02:08:08.827Z,4.91
2022-12-29T02:08:18.820Z,4.92
2022-12-29T02:08:28.813Z,4.92
2022-12-29T02:08:38.829Z,4.91
2022-12-29T02:08:48.834Z,4.91
2022-12-29T02:08:58.821Z,4.92
2022-12-29T02:09:08.848Z,4.91
2022-12-29T02:09:18.829Z,4.92
2022-12-29T02:09:28.818Z,4.94
2022-12-29T02:09:38.859Z,4.92
2022-12-29T02:09:48.818Z,4.92
2022-12-29T02:09:58.838Z,4.92
2022-12-29T02:10:08.862Z,4.93
2022-12-29T02:10:18.835Z,4.93
2022-12-29T02:10:28.838Z,4.94
2022-12-29T02:10:38.862Z,4.93
2022-12-29T02:10:48.835Z,4.94
2022-12-29T02:10:58.831Z,4.94
2022-12-29T02:11:08.835Z,4.94
2022-12-29T02:11:18.827Z,4.94
2022-12-29T02:11:28.821Z,4.93
2022-12-29T02:11:38.827Z,4.93
2022-12-29T02:11:49.583Z,4.95
2022-12-29T02:11:59.564Z,4.96
2022-12-29T02:12:08.835Z,4.95
2022-12-29T02:12:18.828Z,4.96
2022-12-29T02:12:28.830Z,4.97
2022-12-29T02:12:38.837Z,4.97
2022-12-29T02:12:48.837Z,4.97
2022-12-29T02:12:58.908Z,4.97